Observation data for Saint Lawrence on 10/17/2019      Previous  Date       Current Mesonet Observations  Soil Data  Daily Summary Page  Observations in Plain Language
KST1 170500Z 15006KT 10/M03 A3014 RMK A01 T00971026  RH  043%=      5-min Rain = 0
KST1 170505Z 14007KT 10/M03 A3014 RMK A01 T00961027  RH  042%=      5-min Rain = 0
KST1 170510Z 14008KT 09/M03 A3014 RMK A01 T00921028  RH  043%=      5-min Rain = 0
KST1 170515Z 14007KT 09/M03 A3014 RMK A01 T00901030  RH  043%=      5-min Rain = 0
KST1 170520Z 14006KT 09/M03 A3014 RMK A01 T00871032  RH  043%=      5-min Rain = 0
KST1 170525Z 15006KT 09/M03 A3014 RMK A01 T00851032  RH  044%=      5-min Rain = 0
KST1 170530Z 15006KT 09/M03 A3013 RMK A01 T00871027  RH  045%=      5-min Rain = 0
KST1 170535Z 15007KT 09/M03 A3013 RMK A01 T00861027  RH  046%=      5-min Rain = 0
KST1 170540Z 16007KT 09/M02 A3013 RMK A01 T00901023  RH  045%=      5-min Rain = 0
KST1 170545Z 15006KT 09/M02 A3013 RMK A01 T00921023  RH  045%=      5-min Rain = 0
KST1 170550Z 15006KT 09/M03 A3013 RMK A01 T00861027  RH  045%=      5-min Rain = 0
KST1 170555Z 15006KT 08/M03 A3013 RMK A01 T00811030  RH  046%=      5-min Rain = 0
KST1 170600Z 15006KT 08/M03 A3013 RMK A01 T00801029  RH  047%=      5-min Rain = 0
KST1 170605Z 15006KT 08/M03 A3013 RMK A01 T00801028  RH  047%=      5-min Rain = 0
KST1 170610Z 14007KT 08/M03 A3013 RMK A01 T00811027  RH  047%=      5-min Rain = 0
KST1 170615Z 15007KT 08/M03 A3013 RMK A01 T00811028  RH  047%=      5-min Rain = 0
KST1 170620Z 14006KT 08/M03 A3013 RMK A01 T00781031  RH  047%=      5-min Rain = 0
KST1 170625Z 14006KT 08/M03 A3012 RMK A01 T00751033  RH  047%=      5-min Rain = 0
KST1 170630Z 14006KT 07/M03 A3012 RMK A01 T00741034  RH  047%=      5-min Rain = 0
KST1 170635Z 14005KT 07/M03 A3012 RMK A01 T00731033  RH  047%=      5-min Rain = 0
KST1 170640Z 15004KT 07/M03 A3012 RMK A01 T00721032  RH  048%=      5-min Rain = 0
KST1 170645Z 16005KT 07/M03 A3012 RMK A01 T00711031  RH  049%=      5-min Rain = 0
KST1 170650Z 16005KT 07/M03 A3011 RMK A01 T00711032  RH  048%=      5-min Rain = 0
KST1 170655Z 16005KT 08/M03 A3011 RMK A01 T00751029  RH  048%=      5-min Rain = 0
KST1 170700Z 17005KT 08/M03 A3011 RMK A01 T00781030  RH  047%=      5-min Rain = 0
KST1 170705Z 18005KT 08/M03 A3011 RMK A01 T00821027  RH  047%=      5-min Rain = 0
KST1 170710Z 18005KT 08/M03 A3011 RMK A01 T00831026  RH  047%=      5-min Rain = 0
KST1 170715Z 19004KT 08/M03 A3011 RMK A01 T00811027  RH  047%=      5-min Rain = 0
KST1 170720Z 19003KT 08/M03 A3011 RMK A01 T00791030  RH  047%=      5-min Rain = 0
KST1 170725Z 20003KT 07/M04 A3012 RMK A01 T00691037  RH  047%=      5-min Rain = 0
KST1 170730Z 22003KT 07/M04 A3011 RMK A01 T00651039  RH  048%=      5-min Rain = 0
KST1 170735Z 19004KT 07/M03 A3011 RMK A01 T00681031  RH  050%=      5-min Rain = 0
KST1 170740Z 20004KT 08/M02 A3011 RMK A01 T00791024  RH  049%=      5-min Rain = 0
KST1 170745Z 20003KT 08/M03 A3011 RMK A01 T00811027  RH  047%=      5-min Rain = 0
KST1 170750Z 21003KT 07/M03 A3011 RMK A01 T00741029  RH  048%=      5-min Rain = 0
KST1 170755Z 20002KT 07/M03 A3011 RMK A01 T00711031  RH  049%=      5-min Rain = 0
KST1 170800Z 24002KT 07/M03 A3011 RMK A01 T00681034  RH  048%=      5-min Rain = 0
KST1 170805Z 30004KT 06/M04 A3011 RMK A01 T00621040  RH  048%=      5-min Rain = 0
KST1 170810Z 31006KT 06/M04 A3011 RMK A01 T00611041  RH  049%=      5-min Rain = 0
KST1 170815Z 30006KT 06/M04 A3011 RMK A01 T00601041  RH  049%=      5-min Rain = 0
KST1 170820Z 27003KT 06/M04 A3011 RMK A01 T00601039  RH  049%=      5-min Rain = 0
KST1 170825Z 26002KT 06/M04 A3011 RMK A01 T00601038  RH  050%=      5-min Rain = 0
KST1 170830Z 24001KT 06/M04 A3011 RMK A01 T00621037  RH  050%=      5-min Rain = 0
KST1 170835Z 23002KT 06/M04 A3011 RMK A01 T00631035  RH  050%=      5-min Rain = 0
KST1 170840Z 23002KT 07/M03 A3011 RMK A01 T00651034  RH  050%=      5-min Rain = 0
KST1 170845Z 22003KT 07/M03 A3011 RMK A01 T00681033  RH  049%=      5-min Rain = 0
KST1 170850Z 21003KT 07/M03 A3011 RMK A01 T00701034  RH  048%=      5-min Rain = 0
KST1 170855Z 19003KT 06/M04 A3011 RMK A01 T00631038  RH  049%=      5-min Rain = 0
KST1 170900Z 18003KT 06/M04 A301 RMK A01 T00591039  RH  050%=      5-min Rain = 0
KST1 170905Z 17003KT 06/M04 A301 RMK A01 T00561038  RH  051%=      5-min Rain = 0
KST1 170910Z 16005KT 06/M04 A3009 RMK A01 T00551040  RH  051%=      5-min Rain = 0
KST1 170915Z 15006KT 06/M04 A3009 RMK A01 T00571037  RH  051%=      5-min Rain = 0
KST1 170920Z 14006KT 06/M04 A3009 RMK A01 T00571040  RH  050%=      5-min Rain = 0
KST1 170925Z 13004KT 06/M04 A3009 RMK A01 T00571041  RH  050%=      5-min Rain = 0
KST1 170930Z 12003KT 06/M04 A3009 RMK A01 T00581042  RH  049%=      5-min Rain = 0
KST1 170935Z 12001KT 06/M04 A3009 RMK A01 T00581043  RH  049%=      5-min Rain = 0
KST1 170940Z 16000KT 06/M05 A3009 RMK A01 T00571046  RH  048%=      5-min Rain = 0
KST1 170945Z 18001KT 06/M05 A301 RMK A01 T00571045  RH  048%=      5-min Rain = 0
KST1 170950Z 16002KT 06/M04 A3009 RMK A01 T00571044  RH  049%=      5-min Rain = 0
KST1 170955Z 16002KT 06/M04 A3009 RMK A01 T00571044  RH  049%=      5-min Rain = 0
KST1 171000Z 16002KT 06/M04 A3009 RMK A01 T00571044  RH  049%=      5-min Rain = 0
KST1 171005Z 17003KT 06/M04 A3009 RMK A01 T00601042  RH  048%=      5-min Rain = 0
KST1 171010Z 17005KT 07/M04 A3008 RMK A01 T00671039  RH  047%=      5-min Rain = 0
KST1 171015Z 16005KT 06/M04 A3008 RMK A01 T00631039  RH  049%=      5-min Rain = 0
KST1 171020Z 16005KT 07/M03 A3008 RMK A01 T00691033  RH  049%=      5-min Rain = 0
KST1 171025Z 15006KT 07/M03 A3008 RMK A01 T00691033  RH  049%=      5-min Rain = 0
KST1 171030Z 16004KT 07/M04 A3008 RMK A01 T00681037  RH  048%=      5-min Rain = 0
KST1 171035Z 19002KT 07/M04 A3008 RMK A01 T00671036  RH  048%=      5-min Rain = 0
KST1 171040Z 17002KT 07/M04 A3009 RMK A01 T00661037  RH  048%=      5-min Rain = 0
KST1 171045Z 17004KT 07/M03 A3009 RMK A01 T00681034  RH  048%=      5-min Rain = 0
KST1 171050Z 17005KT 07/M04 A3008 RMK A01 T00681036  RH  048%=      5-min Rain = 0
KST1 171055Z 17005KT 07/M04 A3008 RMK A01 T00651037  RH  049%=      5-min Rain = 0
KST1 171100Z 16006KT 07/M03 A3008 RMK A01 T00681033  RH  049%=      5-min Rain = 0
KST1 171105Z 17007KT 08/M03 A3007 RMK A01 T00761030  RH  048%=      5-min Rain = 0
KST1 171110Z 16008KT 08/M03 A3007 RMK A01 T00801030  RH  046%=      5-min Rain = 0
KST1 171115Z 16007KT 08/M03 A3007 RMK A01 T00811028  RH  046%=      5-min Rain = 0
KST1 171120Z 17005KT 09/M03 A3008 RMK A01 T00861026  RH  046%=      5-min Rain = 0
KST1 171125Z 17004KT 09/M03 A3008 RMK A01 T00851027  RH  046%=      5-min Rain = 0
KST1 171130Z 17004KT 08/M03 A3008 RMK A01 T00831028  RH  046%=      5-min Rain = 0
KST1 171135Z 19002KT 08/M03 A3008 RMK A01 T00811028  RH  046%=      5-min Rain = 0
KST1 171140Z 23002KT 07/M03 A3008 RMK A01 T00731034  RH  047%=      5-min Rain = 0
KST1 171145Z 20003KT 07/M03 A3008 RMK A01 T00731032  RH  048%=      5-min Rain = 0
KST1 171150Z 19003KT 08/M03 A3008 RMK A01 T00751030  RH  048%=      5-min Rain = 0
KST1 171155Z 19003KT 08/M03 A3008 RMK A01 T00781028  RH  048%=      5-min Rain = 0
KST1 171200Z 19004KT 08/M03 A3007 RMK A01 T00821025  RH  047%=      5-min Rain = 0
KST1 171205Z 21003KT 08/M03 A3008 RMK A01 T00801027  RH  047%=      5-min Rain = 0
KST1 171210Z 21004KT 07/M03 A3007 RMK A01 T00721029  RH  049%=      5-min Rain = 0
KST1 171215Z 20006KT 08/M02 A3007 RMK A01 T00751024  RH  050%=      5-min Rain = 0
KST1 171220Z 19007KT 09/M02 A3007 RMK A01 T00881021  RH  047%=      5-min Rain = 0
KST1 171225Z 18006KT 08/M03 A3007 RMK A01 T00791026  RH  048%=      5-min Rain = 0
KST1 171230Z 19006KT 08/M03 A3007 RMK A01 T00761026  RH  049%=      5-min Rain = 0
KST1 171235Z 20005KT 08/M02 A3008 RMK A01 T00791023  RH  049%=      5-min Rain = 0
KST1 171240Z 20006KT 08/M03 A3008 RMK A01 T00811025  RH  048%=      5-min Rain = 0
KST1 171245Z 21006KT 07/M03 A3008 RMK A01 T00661033  RH  050%=      5-min Rain = 0
KST1 171250Z 20005KT 07/M03 A3007 RMK A01 T00661029  RH  051%=      5-min Rain = 0
KST1 171255Z 20005KT 07/M02 A3007 RMK A01 T00721023  RH  051%=      5-min Rain = 0
KST1 171300Z 19006KT 08/M02 A3007 RMK A01 T00821019  RH  049%=      5-min Rain = 0
KST1 171305Z 19005KT 09/M02 A3007 RMK A01 T00851019  RH  048%=      5-min Rain = 0
KST1 171310Z 18005KT 08/M02 A3007 RMK A01 T00831021  RH  048%=      5-min Rain = 0
KST1 171315Z 19005KT 09/M02 A3006 RMK A01 T00861018  RH  048%=      5-min Rain = 0
KST1 171320Z 18005KT 09/M02 A3006 RMK A01 T00891019  RH  047%=      5-min Rain = 0
KST1 171325Z 14002KT 10/M02 A3006 RMK A01 T00961015  RH  046%=      5-min Rain = 0
KST1 171330Z 00001KT 10/M02 A3007 RMK A01 T00961019  RH  045%=      5-min Rain = 0
KST1 171335Z 34001KT 09/M02 A3007 RMK A01 T00881023  RH  046%=      5-min Rain = 0
KST1 171340Z 17000KT 10/M02 A3006 RMK A01 T00951021  RH  045%=      5-min Rain = 0
KST1 171345Z 29001KT 10/M02 A3006 RMK A01 T00961021  RH  044%=      5-min Rain = 0
KST1 171350Z 34001KT 10/M02 A3007 RMK A01 T00971019  RH  045%=      5-min Rain = 0
KST1 171355Z 01001KT 10/M02 A3007 RMK A01 T01001018  RH  044%=      5-min Rain = 0
KST1 171400Z 36000KT 11/M02 A3007 RMK A01 T01061016  RH  043%=      5-min Rain = 0
KST1 171405Z 15001KT 12/M01 A3007 RMK A01 T01181014  RH  040%=      5-min Rain = 0
KST1 171410Z 15003KT 12/M01 A3007 RMK A01 T01211013  RH  040%=      5-min Rain = 0
KST1 171415Z 16004KT 13/M01 A3007 RMK A01 T01281011  RH  039%=      5-min Rain = 0
KST1 171420Z 16004KT 13/M01 A3007 RMK A01 T01311010  RH  038%=      5-min Rain = 0
KST1 171425Z 17003KT 13/M01 A3007 RMK A01 T01311010  RH  038%=      5-min Rain = 0
KST1 171430Z 17004KT 14/M01 A3007 RMK A01 T01351009  RH  038%=      5-min Rain = 0
KST1 171435Z 17004KT 14/M01 A3007 RMK A01 T01371008  RH  037%=      5-min Rain = 0
KST1 171440Z 18004KT 14/M01 A3007 RMK A01 T01401006  RH  037%=      5-min Rain = 0
KST1 171445Z 19004KT 15/M00 A3008 RMK A01 T01481003  RH  036%=      5-min Rain = 0
KST1 171450Z 19005KT 15/M00 A3007 RMK A01 T01541001  RH  035%=      5-min Rain = 0
KST1 171455Z 19007KT 16/00 A3007 RMK A01 T01600001  RH  034%=      5-min Rain = 0
KST1 171500Z 18007KT 16/00 A3007 RMK A01 T01620003  RH  034%=      5-min Rain = 0
KST1 171505Z 19007KT 16/01 A3007 RMK A01 T01640005  RH  034%=      5-min Rain = 0
KST1 171510Z 20007KT 17/01 A3007 RMK A01 T01660008  RH  035%=      5-min Rain = 0
KST1 171515Z 19007KT 17/01 A3007 RMK A01 T01700009  RH  034%=      5-min Rain = 0
KST1 171520Z 19007KT 17/01 A3007 RMK A01 T01710010  RH  034%=      5-min Rain = 0
KST1 171525Z 19008KT 17/01 A3007 RMK A01 T01730012  RH  034%=      5-min Rain = 0
KST1 171530Z 21007KT 18/01 A3007 RMK A01 T01760013  RH  034%=      5-min Rain = 0
KST1 171535Z 23009KT 18/02 A3007 RMK A01 T01810015  RH  033%=      5-min Rain = 0
KST1 171540Z 23008KT 18/01 A3007 RMK A01 T01810014  RH  033%=      5-min Rain = 0
KST1 171545Z 23008KT 18/02 A3007 RMK A01 T01810015  RH  033%=      5-min Rain = 0
KST1 171550Z 23007KT 19/02 A3007 RMK A01 T01860017  RH  033%=      5-min Rain = 0
KST1 171555Z 23008KT 19/02 A3007 RMK A01 T01860017  RH  033%=      5-min Rain = 0
KST1 171600Z 21007KT 19/02 A3007 RMK A01 T01900018  RH  032%=      5-min Rain = 0
KST1 171605Z 22007KT 19/02 A3006 RMK A01 T01920017  RH  031%=      5-min Rain = 0
KST1 171610Z 21008KT 19/02 A3006 RMK A01 T01920015  RH  031%=      5-min Rain = 0
KST1 171615Z 22007KT 20/02 A3006 RMK A01 T01950018  RH  031%=      5-min Rain = 0
KST1 171620Z 22006KT 20/02 A3006 RMK A01 T01980019  RH  031%=      5-min Rain = 0
KST1 171625Z 22007KT 20/02 A3006 RMK A01 T01990019  RH  031%=      5-min Rain = 0
KST1 171630Z 23006KT 20/02 A3006 RMK A01 T02040019  RH  030%=      5-min Rain = 0
KST1 171635Z 23006KT 21/02 A3006 RMK A01 T02050020  RH  030%=      5-min Rain = 0
KST1 171640Z 21006KT 21/02 A3006 RMK A01 T02110023  RH  029%=      5-min Rain = 0
KST1 171645Z 22007KT 21/03 A3005 RMK A01 T02070026  RH  030%=      5-min Rain = 0
KST1 171650Z 22007KT 21/04 A3005 RMK A01 T02120035  RH  032%=      5-min Rain = 0
KST1 171655Z 21007KT 21/04 A3005 RMK A01 T02090041  RH  034%=      5-min Rain = 0
KST1 171700Z 20007KT 21/05 A3004 RMK A01 T02100046  RH  034%=      5-min Rain = 0
KST1 171705Z 21005KT 21/05 A3004 RMK A01 T02140051  RH  035%=      5-min Rain = 0
KST1 171710Z 21007KT 22/05 A3004 RMK A01 T02180053  RH  034%=      5-min Rain = 0
KST1 171715Z 18006KT 22/06 A3004 RMK A01 T02190055  RH  035%=      5-min Rain = 0
KST1 171720Z 20008KT 22/06 A3004 RMK A01 T02240062  RH  035%=      5-min Rain = 0
KST1 171725Z 19006KT 22/06 A3004 RMK A01 T02190060  RH  036%=      5-min Rain = 0
KST1 171730Z 19008KT 22/07 A3004 RMK A01 T02230067  RH  037%=      5-min Rain = 0
KST1 171735Z 20006KT 22/07 A3004 RMK A01 T02220067  RH  037%=      5-min Rain = 0
KST1 171740Z 18008G13KT 23/07 A3003 RMK A01 T02270074  RH  038%=      5-min Rain = 0
KST1 171745Z 18008G13KT 23/07 A3003 RMK A01 T02260073  RH  038%=      5-min Rain = 0
KST1 171750Z 19008KT 23/07 A3003 RMK A01 T02260072  RH  038%=      5-min Rain = 0
KST1 171755Z 18008KT 23/07 A3003 RMK A01 T02260070  RH  037%=      5-min Rain = 0
KST1 171800Z 18007KT 23/07 A3002 RMK A01 T02330070  RH  035%=      5-min Rain = 0
KST1 171805Z 18008G13KT 23/07 A3002 RMK A01 T02320072  RH  036%=      5-min Rain = 0
KST1 171810Z 18007G13KT 23/07 A3001 RMK A01 T02330074  RH  037%=      5-min Rain = 0
KST1 171815Z 18008KT 24/07 A3001 RMK A01 T02380074  RH  036%=      5-min Rain = 0
KST1 171820Z 19009KT 24/08 A3001 RMK A01 T02360076  RH  036%=      5-min Rain = 0
KST1 171825Z 18007G12KT 24/07 A3001 RMK A01 T02360072  RH  035%=      5-min Rain = 0
KST1 171830Z 18009KT 24/07 A30 RMK A01 T02400074  RH  035%=      5-min Rain = 0
KST1 171835Z 17008KT 24/07 A30 RMK A01 T02400074  RH  035%=      5-min Rain = 0
KST1 171840Z 19008G15KT 24/08 A30 RMK A01 T02410076  RH  035%=      5-min Rain = 0
KST1 171845Z 18009KT 24/08 A2999 RMK A01 T02440078  RH  035%=      5-min Rain = 0
KST1 171850Z 17008G13KT 24/08 A2999 RMK A01 T02440076  RH  034%=      5-min Rain = 0
KST1 171855Z 20009G14KT 25/07 A2999 RMK A01 T02470074  RH  034%=      5-min Rain = 0
KST1 171900Z 19009G15KT 25/08 A2998 RMK A01 T02490078  RH  034%=      5-min Rain = 0
KST1 171905Z 21009KT 25/08 A2998 RMK A01 T02460076  RH  034%=      5-min Rain = 0
KST1 171910Z 19008G13KT 25/08 A2997 RMK A01 T02480077  RH  034%=      5-min Rain = 0
KST1 171915Z 18009G14KT 25/08 A2997 RMK A01 T02540079  RH  033%=      5-min Rain = 0
KST1 171920Z 19009KT 25/08 A2997 RMK A01 T02480078  RH  034%=      5-min Rain = 0
KST1 171925Z 18007KT 25/08 A2996 RMK A01 T02490078  RH  034%=      5-min Rain = 0
KST1 171930Z 18007KT 25/08 A2996 RMK A01 T02500078  RH  034%=      5-min Rain = 0
KST1 171935Z 13003G8KT 25/08 A2996 RMK A01 T02500078  RH  034%=      5-min Rain = 0
KST1 171940Z 20008G14KT 26/08 A2995 RMK A01 T02570082  RH  033%=      5-min Rain = 0
KST1 171945Z 19008KT 26/09 A2995 RMK A01 T02580086  RH  034%=      5-min Rain = 0
KST1 171950Z 17006G15KT 26/09 A2995 RMK A01 T02580088  RH  035%=      5-min Rain = 0
KST1 171955Z 17012KT 26/09 A2995 RMK A01 T02640090  RH  034%=      5-min Rain = 0
KST1 172000Z 17008G13KT 26/09 A2995 RMK A01 T02610090  RH  034%=      5-min Rain = 0
KST1 172005Z 21009KT 26/09 A2994 RMK A01 T02630089  RH  034%=      5-min Rain = 0
KST1 172010Z 21008G13KT 26/09 A2994 RMK A01 T02630090  RH  034%=      5-min Rain = 0
KST1 172015Z 17007G14KT 26/09 A2994 RMK A01 T02620091  RH  034%=      5-min Rain = 0
KST1 172020Z 18010KT 27/09 A2993 RMK A01 T02650091  RH  034%=      5-min Rain = 0
KST1 172025Z 18009G14KT 27/09 A2993 RMK A01 T02650091  RH  034%=      5-min Rain = 0
KST1 172030Z 18008G13KT 26/09 A2993 RMK A01 T02620092  RH  035%=      5-min Rain = 0
KST1 172035Z 17006G12KT 26/09 A2993 RMK A01 T02630091  RH  034%=      5-min Rain = 0
KST1 172040Z 17009KT 27/09 A2993 RMK A01 T02700093  RH  033%=      5-min Rain = 0
KST1 172045Z 19008KT 27/09 A2992 RMK A01 T02650092  RH  034%=      5-min Rain = 0
KST1 172050Z 19006G11KT 26/09 A2992 RMK A01 T02640091  RH  034%=      5-min Rain = 0
KST1 172055Z 19006G11KT 27/09 A2992 RMK A01 T02650092  RH  034%=      5-min Rain = 0
KST1 172100Z 17007G20KT 27/09 A2991 RMK A01 T02650093  RH  034%=      5-min Rain = 0
KST1 172105Z 19009KT 26/09 A2991 RMK A01 T02640093  RH  035%=      5-min Rain = 0
KST1 172110Z 20006KT 26/09 A2991 RMK A01 T02630093  RH  035%=      5-min Rain = 0
KST1 172115Z 20008G14KT 27/10 A2991 RMK A01 T02680095  RH  034%=      5-min Rain = 0
KST1 172120Z 18007KT 27/10 A2991 RMK A01 T02690095  RH  034%=      5-min Rain = 0
KST1 172125Z 20009KT 27/09 A2991 RMK A01 T02670094  RH  034%=      5-min Rain = 0
KST1 172130Z 20009KT 27/09 A2991 RMK A01 T02680093  RH  034%=      5-min Rain = 0
KST1 172135Z 19005KT 27/09 A2991 RMK A01 T02650092  RH  034%=      5-min Rain = 0
KST1 172140Z 19006G11KT 27/09 A2991 RMK A01 T02670092  RH  034%=      5-min Rain = 0
KST1 172145Z 17006KT 27/09 A2991 RMK A01 T02700091  RH  033%=      5-min Rain = 0
KST1 172150Z 16007G12KT 26/09 A299 RMK A01 T02630090  RH  034%=      5-min Rain = 0
KST1 172155Z 19008KT 26/09 A299 RMK A01 T02630091  RH  034%=      5-min Rain = 0
KST1 172200Z 20006KT 26/09 A299 RMK A01 T02600091  RH  035%=      5-min Rain = 0
KST1 172205Z 15006KT 27/09 A299 RMK A01 T02670091  RH  033%=      5-min Rain = 0
KST1 172210Z 17005G10KT 27/09 A299 RMK A01 T02670090  RH  033%=      5-min Rain = 0
KST1 172215Z 18003G10KT 27/09 A2989 RMK A01 T02710090  RH  032%=      5-min Rain = 0
KST1 172220Z 16008G13KT 27/09 A2989 RMK A01 T02710090  RH  033%=      5-min Rain = 0
KST1 172225Z 19008KT 27/09 A2989 RMK A01 T02690090  RH  033%=      5-min Rain = 0
KST1 172230Z 18008KT 27/09 A2989 RMK A01 T02690089  RH  033%=      5-min Rain = 0
KST1 172235Z 17008KT 27/09 A2989 RMK A01 T02670089  RH  033%=      5-min Rain = 0
KST1 172240Z 17006KT 27/09 A2989 RMK A01 T02670089  RH  033%=      5-min Rain = 0
KST1 172245Z 20007KT 26/09 A2989 RMK A01 T02630089  RH  034%=      5-min Rain = 0
KST1 172250Z 20006KT 26/09 A2989 RMK A01 T02630089  RH  034%=      5-min Rain = 0
KST1 172255Z 18006KT 27/09 A2988 RMK A01 T02660088  RH  033%=      5-min Rain = 0
KST1 172300Z 19004G9KT 27/09 A2988 RMK A01 T02650088  RH  033%=      5-min Rain = 0
KST1 172305Z 19006KT 27/09 A2988 RMK A01 T02650087  RH  033%=      5-min Rain = 0
KST1 172310Z 18005KT 27/09 A2988 RMK A01 T02660087  RH  033%=      5-min Rain = 0
KST1 172315Z 17008KT 26/09 A2988 RMK A01 T02630088  RH  033%=      5-min Rain = 0
KST1 172320Z 18008KT 26/09 A2988 RMK A01 T02630090  RH  034%=      5-min Rain = 0
KST1 172325Z 18008KT 26/09 A2988 RMK A01 T02630090  RH  034%=      5-min Rain = 0
KST1 172330Z 19007KT 26/09 A2988 RMK A01 T02610090  RH  034%=      5-min Rain = 0
KST1 172335Z 16007KT 26/09 A2988 RMK A01 T02600089  RH  034%=      5-min Rain = 0
KST1 172340Z 18006KT 26/09 A2988 RMK A01 T02590089  RH  035%=      5-min Rain = 0
KST1 172345Z 15006KT 26/09 A2988 RMK A01 T02590089  RH  035%=      5-min Rain = 0
KST1 172350Z 15008KT 26/09 A2988 RMK A01 T02560090  RH  035%=      5-min Rain = 0
KST1 172355Z 16007KT 25/09 A2988 RMK A01 T02540091  RH  036%=      5-min Rain = 0
KST1 180000Z 14007KT 25/09 A2988 RMK A01 T02520090  RH  036%=      5-min Rain = 0
KST1 180005Z 14007KT 25/09 A2988 RMK A01 T02500090  RH  037%=      5-min Rain = 0
KST1 180010Z 15007KT 25/09 A2988 RMK A01 T02480089  RH  037%=      5-min Rain = 0
KST1 180015Z 15005KT 24/09 A2988 RMK A01 T02440088  RH  038%=      5-min Rain = 0
KST1 180020Z 14006KT 24/09 A2988 RMK A01 T02400087  RH  038%=      5-min Rain = 0
KST1 180025Z 14007KT 24/09 A2988 RMK A01 T02380088  RH  039%=      5-min Rain = 0
KST1 180030Z 14006KT 23/09 A2988 RMK A01 T02340086  RH  039%=      5-min Rain = 0
KST1 180035Z 15006KT 23/09 A2988 RMK A01 T02300085  RH  040%=      5-min Rain = 0
KST1 180040Z 14006KT 23/09 A2988 RMK A01 T02270085  RH  041%=      5-min Rain = 0
KST1 180045Z 14007KT 23/09 A2988 RMK A01 T02270087  RH  041%=      5-min Rain = 0
KST1 180050Z 14007KT 23/09 A2988 RMK A01 T02250087  RH  042%=      5-min Rain = 0
KST1 180055Z 14008KT 22/09 A2988 RMK A01 T02240087  RH  042%=      5-min Rain = 0
KST1 180100Z 14007KT 22/09 A2988 RMK A01 T02220087  RH  043%=      5-min Rain = 0
KST1 180105Z 14006KT 22/09 A2988 RMK A01 T02170085  RH  043%=      5-min Rain = 0
KST1 180110Z 14007KT 21/08 A2988 RMK A01 T02140084  RH  044%=      5-min Rain = 0
KST1 180115Z 14007KT 21/08 A2988 RMK A01 T02120083  RH  044%=      5-min Rain = 0
KST1 180120Z 14007KT 21/08 A2988 RMK A01 T02110084  RH  045%=      5-min Rain = 0
KST1 180125Z 14007KT 21/08 A2988 RMK A01 T02110084  RH  045%=      5-min Rain = 0
KST1 180130Z 13008KT 21/09 A2988 RMK A01 T02090085  RH  045%=      5-min Rain = 0
KST1 180135Z 13009KT 21/09 A2988 RMK A01 T02070085  RH  046%=      5-min Rain = 0
KST1 180140Z 13009KT 21/09 A2988 RMK A01 T02070086  RH  046%=      5-min Rain = 0
KST1 180145Z 13010KT 21/09 A2987 RMK A01 T02080086  RH  046%=      5-min Rain = 0
KST1 180150Z 14009KT 21/09 A2988 RMK A01 T02080087  RH  046%=      5-min Rain = 0
KST1 180155Z 15009KT 21/09 A2988 RMK A01 T02070087  RH  047%=      5-min Rain = 0
KST1 180200Z 15009KT 21/09 A2988 RMK A01 T02070088  RH  047%=      5-min Rain = 0
KST1 180205Z 14009KT 21/09 A2988 RMK A01 T02060088  RH  047%=      5-min Rain = 0
KST1 180210Z 14009KT 21/09 A2988 RMK A01 T02050088  RH  048%=      5-min Rain = 0
KST1 180215Z 14009KT 20/09 A2988 RMK A01 T02020088  RH  048%=      5-min Rain = 0
KST1 180220Z 14009KT 20/09 A2989 RMK A01 T02000088  RH  049%=      5-min Rain = 0
KST1 180225Z 15009KT 20/09 A2989 RMK A01 T01990088  RH  049%=      5-min Rain = 0
KST1 180230Z 15009KT 20/09 A2989 RMK A01 T01980088  RH  050%=      5-min Rain = 0
KST1 180235Z 15010KT 20/09 A2989 RMK A01 T01980088  RH  050%=      5-min Rain = 0
KST1 180240Z 15009KT 20/09 A2989 RMK A01 T01970088  RH  050%=      5-min Rain = 0
KST1 180245Z 15009KT 20/09 A2989 RMK A01 T01960088  RH  051%=      5-min Rain = 0
KST1 180250Z 15009KT 19/09 A2989 RMK A01 T01930088  RH  051%=      5-min Rain = 0
KST1 180255Z 15009KT 19/09 A299 RMK A01 T01920088  RH  052%=      5-min Rain = 0
KST1 180300Z 15008KT 19/09 A299 RMK A01 T01900088  RH  052%=      5-min Rain = 0
KST1 180305Z 16009KT 19/09 A299 RMK A01 T01900089  RH  053%=      5-min Rain = 0
KST1 180310Z 16008KT 19/09 A299 RMK A01 T01890089  RH  053%=      5-min Rain = 0
KST1 180315Z 16008KT 19/09 A299 RMK A01 T01880089  RH  053%=      5-min Rain = 0
KST1 180320Z 16009KT 19/09 A299 RMK A01 T01860089  RH  054%=      5-min Rain = 0
KST1 180325Z 16009KT 19/09 A299 RMK A01 T01860090  RH  054%=      5-min Rain = 0
KST1 180330Z 15009KT 18/09 A299 RMK A01 T01840090  RH  055%=      5-min Rain = 0
KST1 180335Z 16009KT 19/09 A299 RMK A01 T01850092  RH  055%=      5-min Rain = 0
KST1 180340Z 16010KT 19/09 A299 RMK A01 T01860092  RH  055%=      5-min Rain = 0
KST1 180345Z 16010KT 19/09 A299 RMK A01 T01850093  RH  056%=      5-min Rain = 0
KST1 180350Z 16011KT 19/09 A299 RMK A01 T01860094  RH  056%=      5-min Rain = 0
KST1 180355Z 17011KT 19/09 A299 RMK A01 T01860094  RH  056%=      5-min Rain = 0
KST1 180400Z 17012KT 19/10 A299 RMK A01 T01870095  RH  056%=      5-min Rain = 0
KST1 180405Z 17012KT 19/10 A299 RMK A01 T01870095  RH  056%=      5-min Rain = 0
KST1 180410Z 16011KT 19/10 A299 RMK A01 T01860095  RH  056%=      5-min Rain = 0
KST1 180415Z 16012KT 19/09 A299 RMK A01 T01850094  RH  056%=      5-min Rain = 0
KST1 180420Z 16012KT 18/10 A299 RMK A01 T01840095  RH  057%=      5-min Rain = 0
KST1 180425Z 17011KT 18/09 A299 RMK A01 T01830094  RH  057%=      5-min Rain = 0
KST1 180430Z 17012KT 18/10 A299 RMK A01 T01820095  RH  057%=      5-min Rain = 0
KST1 180435Z 17012KT 18/10 A299 RMK A01 T01820095  RH  058%=      5-min Rain = 0
KST1 180440Z 17012KT 18/10 A299 RMK A01 T01810095  RH  058%=      5-min Rain = 0
KST1 180445Z 17013KT 18/10 A299 RMK A01 T01810096  RH  058%=      5-min Rain = 0
KST1 180450Z 17013KT 18/10 A299 RMK A01 T01810095  RH  058%=      5-min Rain = 0
KST1 180455Z 18014KT 18/10 A299 RMK A01 T01810095  RH  058%=      5-min Rain = 0

Page generated in 0.0162 seconds.